sensor_id;sensor_type;location;lat;lon;timestamp;P1;durP1;ratioP1;P2;durP2;ratioP2
19101;SDS011;9683;49.028;12.064;2023-02-27T00:01:59;134.75;;;23.67;;
19101;SDS011;9683;49.028;12.064;2023-02-27T00:04:25;131.70;;;20.88;;
19101;SDS011;9683;49.028;12.064;2023-02-27T00:06:52;108.75;;;17.55;;
19101;SDS011;9683;49.028;12.064;2023-02-27T00:09:19;101.28;;;20.40;;
19101;SDS011;9683;49.028;12.064;2023-02-27T00:11:45;99.80;;;19.63;;
19101;SDS011;9683;49.028;12.064;2023-02-27T00:14:12;73.88;;;15.82;;
19101;SDS011;9683;49.028;12.064;2023-02-27T00:16:39;97.20;;;18.40;;
19101;SDS011;9683;49.028;12.064;2023-02-27T00:19:06;73.47;;;15.07;;
19101;SDS011;9683;49.028;12.064;2023-02-27T00:21:33;96.93;;;22.38;;
19101;SDS011;9683;49.028;12.064;2023-02-27T00:24:00;60.47;;;17.10;;
19101;SDS011;9683;49.028;12.064;2023-02-27T00:26:27;108.40;;;31.73;;
19101;SDS011;9683;49.028;12.064;2023-02-27T00:28:53;86.38;;;13.50;;
19101;SDS011;9683;49.028;12.064;2023-02-27T00:31:20;154.63;;;22.05;;
19101;SDS011;9683;49.028;12.064;2023-02-27T00:33:48;83.63;;;12.55;;
19101;SDS011;9683;49.028;12.064;2023-02-27T00:36:14;116.85;;;24.92;;
19101;SDS011;9683;49.028;12.064;2023-02-27T00:38:41;98.05;;;17.33;;
19101;SDS011;9683;49.028;12.064;2023-02-27T00:41:07;107.05;;;16.60;;
19101;SDS011;9683;49.028;12.064;2023-02-27T00:43:34;103.50;;;13.90;;
19101;SDS011;9683;49.028;12.064;2023-02-27T00:46:00;108.05;;;14.88;;
19101;SDS011;9683;49.028;12.064;2023-02-27T00:48:27;101.95;;;14.18;;
19101;SDS011;9683;49.028;12.064;2023-02-27T00:50:55;78.60;;;12.75;;
19101;SDS011;9683;49.028;12.064;2023-02-27T00:53:21;99.03;;;14.70;;
19101;SDS011;9683;49.028;12.064;2023-02-27T00:55:48;98.88;;;13.48;;
19101;SDS011;9683;49.028;12.064;2023-02-27T00:58:15;75.78;;;10.43;;
19101;SDS011;9683;49.028;12.064;2023-02-27T01:00:41;95.45;;;13.60;;
19101;SDS011;9683;49.028;12.064;2023-02-27T01:03:08;159.13;;;21.23;;
19101;SDS011;9683;49.028;12.064;2023-02-27T01:05:35;100.30;;;13.45;;
19101;SDS011;9683;49.028;12.064;2023-02-27T01:08:03;153.88;;;20.02;;
19101;SDS011;9683;49.028;12.064;2023-02-27T01:10:29;84.63;;;12.40;;
19101;SDS011;9683;49.028;12.064;2023-02-27T01:12:56;92.13;;;12.48;;
19101;SDS011;9683;49.028;12.064;2023-02-27T01:15:23;99.10;;;13.50;;
19101;SDS011;9683;49.028;12.064;2023-02-27T01:17:49;105.40;;;14.45;;
19101;SDS011;9683;49.028;12.064;2023-02-27T01:20:16;75.75;;;10.60;;
19101;SDS011;9683;49.028;12.064;2023-02-27T01:22:43;86.22;;;11.90;;
19101;SDS011;9683;49.028;12.064;2023-02-27T01:25:10;80.13;;;10.82;;
19101;SDS011;9683;49.028;12.064;2023-02-27T01:27:37;80.03;;;10.85;;
19101;SDS011;9683;49.028;12.064;2023-02-27T01:30:05;106.38;;;14.13;;
19101;SDS011;9683;49.028;12.064;2023-02-27T01:32:32;142.15;;;18.20;;
19101;SDS011;9683;49.028;12.064;2023-02-27T01:34:59;132.45;;;17.20;;
19101;SDS011;9683;49.028;12.064;2023-02-27T01:37:25;138.88;;;17.98;;
19101;SDS011;9683;49.028;12.064;2023-02-27T01:39:52;131.52;;;17.58;;
19101;SDS011;9683;49.028;12.064;2023-02-27T01:42:20;108.05;;;15.38;;
19101;SDS011;9683;49.028;12.064;2023-02-27T01:45:06;142.48;;;18.35;;
19101;SDS011;9683;49.028;12.064;2023-02-27T01:47:44;86.60;;;11.57;;
19101;SDS011;9683;49.028;12.064;2023-02-27T01:50:15;89.72;;;13.27;;
19101;SDS011;9683;49.028;12.064;2023-02-27T01:52:44;107.63;;;14.48;;
19101;SDS011;9683;49.028;12.064;2023-02-27T01:55:13;94.95;;;13.25;;
19101;SDS011;9683;49.028;12.064;2023-02-27T01:57:42;83.88;;;12.27;;
19101;SDS011;9683;49.028;12.064;2023-02-27T02:00:11;110.63;;;14.95;;
19101;SDS011;9683;49.028;12.064;2023-02-27T02:02:40;90.72;;;12.10;;
19101;SDS011;9683;49.028;12.064;2023-02-27T02:05:12;70.20;;;10.05;;
19101;SDS011;9683;49.028;12.064;2023-02-27T02:07:40;98.30;;;14.23;;
19101;SDS011;9683;49.028;12.064;2023-02-27T02:10:10;84.35;;;12.70;;
19101;SDS011;9683;49.028;12.064;2023-02-27T02:12:37;124.43;;;17.15;;
19101;SDS011;9683;49.028;12.064;2023-02-27T02:15:07;120.53;;;17.83;;
19101;SDS011;9683;49.028;12.064;2023-02-27T02:17:36;108.78;;;15.27;;
19101;SDS011;9683;49.028;12.064;2023-02-27T02:20:19;81.60;;;11.38;;
19101;SDS011;9683;49.028;12.064;2023-02-27T02:26:20;105.45;;;14.25;;
19101;SDS011;9683;49.028;12.064;2023-02-27T02:35:33;95.25;;;13.65;;
19101;SDS011;9683;49.028;12.064;2023-02-27T02:41:22;81.88;;;12.40;;
19101;SDS011;9683;49.028;12.064;2023-02-27T02:43:58;95.57;;;13.60;;
19101;SDS011;9683;49.028;12.064;2023-02-27T02:46:31;83.47;;;12.25;;
19101;SDS011;9683;49.028;12.064;2023-02-27T02:49:02;83.68;;;12.27;;
19101;SDS011;9683;49.028;12.064;2023-02-27T02:51:38;81.85;;;11.55;;
19101;SDS011;9683;49.028;12.064;2023-02-27T02:54:15;91.85;;;12.80;;
19101;SDS011;9683;49.028;12.064;2023-02-27T02:56:47;125.20;;;17.73;;
19101;SDS011;9683;49.028;12.064;2023-02-27T02:59:19;82.53;;;13.25;;
19101;SDS011;9683;49.028;12.064;2023-02-27T03:01:51;104.70;;;15.70;;
19101;SDS011;9683;49.028;12.064;2023-02-27T03:04:25;86.90;;;14.02;;
19101;SDS011;9683;49.028;12.064;2023-02-27T03:06:57;90.78;;;13.40;;
19101;SDS011;9683;49.028;12.064;2023-02-27T03:09:31;92.45;;;14.13;;
19101;SDS011;9683;49.028;12.064;2023-02-27T03:12:02;90.20;;;14.27;;
19101;SDS011;9683;49.028;12.064;2023-02-27T03:14:32;125.53;;;18.30;;
19101;SDS011;9683;49.028;12.064;2023-02-27T03:17:03;73.25;;;11.35;;
19101;SDS011;9683;49.028;12.064;2023-02-27T03:19:35;86.80;;;12.88;;
19101;SDS011;9683;49.028;12.064;2023-02-27T03:22:05;134.63;;;19.83;;
19101;SDS011;9683;49.028;12.064;2023-02-27T03:24:37;182.88;;;26.50;;
19101;SDS011;9683;49.028;12.064;2023-02-27T03:27:05;80.63;;;14.10;;
19101;SDS011;9683;49.028;12.064;2023-02-27T03:29:35;72.70;;;13.60;;
19101;SDS011;9683;49.028;12.064;2023-02-27T03:32:07;102.43;;;19.35;;
19101;SDS011;9683;49.028;12.064;2023-02-27T03:34:38;149.73;;;24.50;;
19101;SDS011;9683;49.028;12.064;2023-02-27T03:37:10;87.18;;;16.92;;
19101;SDS011;9683;49.028;12.064;2023-02-27T03:39:47;128.20;;;24.15;;
19101;SDS011;9683;49.028;12.064;2023-02-27T03:42:18;93.18;;;18.55;;
19101;SDS011;9683;49.028;12.064;2023-02-27T03:44:52;96.03;;;19.73;;
19101;SDS011;9683;49.028;12.064;2023-02-27T03:47:23;119.93;;;23.75;;
19101;SDS011;9683;49.028;12.064;2023-02-27T03:49:49;147.38;;;25.42;;
19101;SDS011;9683;49.028;12.064;2023-02-27T03:52:16;101.60;;;20.80;;
19101;SDS011;9683;49.028;12.064;2023-02-27T03:54:45;95.25;;;20.75;;
19101;SDS011;9683;49.028;12.064;2023-02-27T03:57:16;144.68;;;24.42;;
19101;SDS011;9683;49.028;12.064;2023-02-27T03:59:42;97.93;;;18.02;;
19101;SDS011;9683;49.028;12.064;2023-02-27T04:02:10;101.55;;;19.80;;
19101;SDS011;9683;49.028;12.064;2023-02-27T04:04:37;110.00;;;22.88;;
19101;SDS011;9683;49.028;12.064;2023-02-27T04:07:05;85.53;;;17.55;;
19101;SDS011;9683;49.028;12.064;2023-02-27T04:12:46;77.72;;;16.65;;
19101;SDS011;9683;49.028;12.064;2023-02-27T04:15:30;84.15;;;17.80;;
19101;SDS011;9683;49.028;12.064;2023-02-27T04:18:13;78.50;;;17.92;;
19101;SDS011;9683;49.028;12.064;2023-02-27T04:20:49;111.43;;;23.23;;
19101;SDS011;9683;49.028;12.064;2023-02-27T04:23:22;85.63;;;18.25;;
19101;SDS011;9683;49.028;12.064;2023-02-27T04:26:02;106.82;;;23.08;;
19101;SDS011;9683;49.028;12.064;2023-02-27T04:28:42;147.63;;;30.73;;
19101;SDS011;9683;49.028;12.064;2023-02-27T04:31:14;85.85;;;23.67;;
19101;SDS011;9683;49.028;12.064;2023-02-27T04:33:48;108.30;;;24.48;;
19101;SDS011;9683;49.028;12.064;2023-02-27T04:36:22;86.32;;;24.35;;
19101;SDS011;9683;49.028;12.064;2023-02-27T04:38:52;101.68;;;32.88;;
19101;SDS011;9683;49.028;12.064;2023-02-27T04:41:28;130.27;;;49.20;;
19101;SDS011;9683;49.028;12.064;2023-02-27T04:43:58;97.63;;;22.77;;
19101;SDS011;9683;49.028;12.064;2023-02-27T04:46:27;86.65;;;19.05;;
19101;SDS011;9683;49.028;12.064;2023-02-27T04:48:57;119.00;;;21.05;;
19101;SDS011;9683;49.028;12.064;2023-02-27T04:51:28;86.45;;;16.60;;
19101;SDS011;9683;49.028;12.064;2023-02-27T04:53:59;132.05;;;22.38;;
19101;SDS011;9683;49.028;12.064;2023-02-27T04:56:32;107.38;;;19.30;;
19101;SDS011;9683;49.028;12.064;2023-02-27T04:59:02;88.63;;;15.30;;
19101;SDS011;9683;49.028;12.064;2023-02-27T05:01:34;87.78;;;17.65;;
19101;SDS011;9683;49.028;12.064;2023-02-27T05:04:04;89.13;;;16.75;;
19101;SDS011;9683;49.028;12.064;2023-02-27T05:06:34;124.70;;;20.15;;
19101;SDS011;9683;49.028;12.064;2023-02-27T05:09:05;75.28;;;15.95;;
19101;SDS011;9683;49.028;12.064;2023-02-27T05:11:40;167.77;;;35.33;;
19101;SDS011;9683;49.028;12.064;2023-02-27T05:14:14;112.93;;;23.80;;
19101;SDS011;9683;49.028;12.064;2023-02-27T05:16:46;83.20;;;21.55;;
19101;SDS011;9683;49.028;12.064;2023-02-27T05:19:16;101.43;;;21.35;;
19101;SDS011;9683;49.028;12.064;2023-02-27T05:21:46;96.13;;;18.92;;
19101;SDS011;9683;49.028;12.064;2023-02-27T05:24:18;141.95;;;23.00;;
19101;SDS011;9683;49.028;12.064;2023-02-27T05:29:49;112.88;;;22.92;;
19101;SDS011;9683;49.028;12.064;2023-02-27T05:32:22;111.30;;;22.77;;
19101;SDS011;9683;49.028;12.064;2023-02-27T05:34:59;111.68;;;22.02;;
19101;SDS011;9683;49.028;12.064;2023-02-27T05:37:32;99.82;;;19.25;;
19101;SDS011;9683;49.028;12.064;2023-02-27T05:40:03;105.07;;;20.40;;
19101;SDS011;9683;49.028;12.064;2023-02-27T05:42:34;100.97;;;20.27;;
19101;SDS011;9683;49.028;12.064;2023-02-27T05:45:07;92.10;;;21.27;;
19101;SDS011;9683;49.028;12.064;2023-02-27T05:47:40;58.05;;;12.13;;
19101;SDS011;9683;49.028;12.064;2023-02-27T05:50:12;118.22;;;20.23;;
19101;SDS011;9683;49.028;12.064;2023-02-27T05:52:42;99.97;;;17.05;;
19101;SDS011;9683;49.028;12.064;2023-02-27T05:55:10;67.03;;;14.32;;
19101;SDS011;9683;49.028;12.064;2023-02-27T05:57:44;102.45;;;18.17;;
19101;SDS011;9683;49.028;12.064;2023-02-27T06:00:15;114.80;;;21.40;;
19101;SDS011;9683;49.028;12.064;2023-02-27T06:02:46;136.90;;;24.30;;
19101;SDS011;9683;49.028;12.064;2023-02-27T06:05:13;101.05;;;23.38;;
19101;SDS011;9683;49.028;12.064;2023-02-27T06:07:41;126.03;;;24.58;;
19101;SDS011;9683;49.028;12.064;2023-02-27T06:10:10;111.40;;;21.73;;
19101;SDS011;9683;49.028;12.064;2023-02-27T06:15:08;131.52;;;24.77;;
19101;SDS011;9683;49.028;12.064;2023-02-27T06:17:35;98.88;;;19.33;;
19101;SDS011;9683;49.028;12.064;2023-02-27T06:20:01;105.80;;;20.77;;
19101;SDS011;9683;49.028;12.064;2023-02-27T06:22:28;92.65;;;17.98;;
19101;SDS011;9683;49.028;12.064;2023-02-27T06:24:55;113.72;;;19.23;;
19101;SDS011;9683;49.028;12.064;2023-02-27T06:27:21;128.70;;;23.38;;
19101;SDS011;9683;49.028;12.064;2023-02-27T06:29:48;124.43;;;22.63;;
19101;SDS011;9683;49.028;12.064;2023-02-27T06:32:16;93.35;;;16.13;;
19101;SDS011;9683;49.028;12.064;2023-02-27T06:34:42;94.25;;;15.30;;
19101;SDS011;9683;49.028;12.064;2023-02-27T06:37:09;88.68;;;15.75;;
19101;SDS011;9683;49.028;12.064;2023-02-27T06:39:36;124.85;;;21.33;;
19101;SDS011;9683;49.028;12.064;2023-02-27T06:42:02;111.57;;;19.77;;
19101;SDS011;9683;49.028;12.064;2023-02-27T06:44:29;123.72;;;22.60;;
19101;SDS011;9683;49.028;12.064;2023-02-27T06:46:56;117.75;;;22.73;;
19101;SDS011;9683;49.028;12.064;2023-02-27T06:49:24;127.65;;;21.95;;
19101;SDS011;9683;49.028;12.064;2023-02-27T06:51:50;89.93;;;16.15;;
19101;SDS011;9683;49.028;12.064;2023-02-27T06:54:17;111.03;;;21.08;;
19101;SDS011;9683;49.028;12.064;2023-02-27T06:56:43;96.45;;;16.13;;
19101;SDS011;9683;49.028;12.064;2023-02-27T06:59:10;148.55;;;25.23;;
19101;SDS011;9683;49.028;12.064;2023-02-27T07:01:37;118.32;;;21.20;;
19101;SDS011;9683;49.028;12.064;2023-02-27T07:04:03;100.50;;;18.33;;
19101;SDS011;9683;49.028;12.064;2023-02-27T07:06:31;147.50;;;23.70;;
19101;SDS011;9683;49.028;12.064;2023-02-27T07:08:58;109.80;;;20.23;;
19101;SDS011;9683;49.028;12.064;2023-02-27T07:11:24;106.75;;;18.98;;
19101;SDS011;9683;49.028;12.064;2023-02-27T07:13:51;98.93;;;17.70;;
19101;SDS011;9683;49.028;12.064;2023-02-27T07:16:18;119.63;;;21.52;;
19101;SDS011;9683;49.028;12.064;2023-02-27T07:18:44;129.20;;;26.60;;
19101;SDS011;9683;49.028;12.064;2023-02-27T07:21:11;114.50;;;21.25;;
19101;SDS011;9683;49.028;12.064;2023-02-27T07:23:40;143.38;;;23.98;;
19101;SDS011;9683;49.028;12.064;2023-02-27T07:26:07;149.27;;;23.77;;
19101;SDS011;9683;49.028;12.064;2023-02-27T07:28:33;121.60;;;21.20;;
19101;SDS011;9683;49.028;12.064;2023-02-27T07:31:00;149.05;;;27.55;;
19101;SDS011;9683;49.028;12.064;2023-02-27T07:33:27;82.57;;;20.45;;
19101;SDS011;9683;49.028;12.064;2023-02-27T07:35:53;125.05;;;28.02;;
19101;SDS011;9683;49.028;12.064;2023-02-27T07:38:20;121.30;;;28.70;;
19101;SDS011;9683;49.028;12.064;2023-02-27T07:40:49;171.95;;;42.55;;
19101;SDS011;9683;49.028;12.064;2023-02-27T07:43:17;133.63;;;34.33;;
19101;SDS011;9683;49.028;12.064;2023-02-27T07:45:44;91.65;;;28.48;;
19101;SDS011;9683;49.028;12.064;2023-02-27T07:48:11;87.80;;;26.48;;
19101;SDS011;9683;49.028;12.064;2023-02-27T07:50:37;78.70;;;22.63;;
19101;SDS011;9683;49.028;12.064;2023-02-27T07:53:04;91.97;;;26.33;;
19101;SDS011;9683;49.028;12.064;2023-02-27T07:55:32;110.55;;;28.08;;
19101;SDS011;9683;49.028;12.064;2023-02-27T07:58:00;163.57;;;39.25;;
19101;SDS011;9683;49.028;12.064;2023-02-27T08:00:26;108.50;;;29.90;;
19101;SDS011;9683;49.028;12.064;2023-02-27T08:02:53;131.40;;;33.08;;
19101;SDS011;9683;49.028;12.064;2023-02-27T08:05:20;91.05;;;29.52;;
19101;SDS011;9683;49.028;12.064;2023-02-27T08:07:46;112.65;;;33.35;;
19101;SDS011;9683;49.028;12.064;2023-02-27T08:10:13;116.90;;;32.65;;
19101;SDS011;9683;49.028;12.064;2023-02-27T08:12:40;67.43;;;22.55;;
19101;SDS011;9683;49.028;12.064;2023-02-27T08:15:09;96.20;;;24.13;;
19101;SDS011;9683;49.028;12.064;2023-02-27T08:17:36;130.73;;;30.33;;
19101;SDS011;9683;49.028;12.064;2023-02-27T08:20:03;82.35;;;23.17;;
19101;SDS011;9683;49.028;12.064;2023-02-27T08:22:31;107.30;;;25.95;;
19101;SDS011;9683;49.028;12.064;2023-02-27T08:24:58;132.30;;;32.97;;
19101;SDS011;9683;49.028;12.064;2023-02-27T08:27:25;121.93;;;30.20;;
19101;SDS011;9683;49.028;12.064;2023-02-27T08:29:51;98.57;;;28.50;;
19101;SDS011;9683;49.028;12.064;2023-02-27T08:32:19;115.93;;;32.83;;
19101;SDS011;9683;49.028;12.064;2023-02-27T08:34:46;112.07;;;41.50;;
19101;SDS011;9683;49.028;12.064;2023-02-27T08:37:13;142.55;;;47.45;;
19101;SDS011;9683;49.028;12.064;2023-02-27T08:39:39;133.20;;;47.05;;
19101;SDS011;9683;49.028;12.064;2023-02-27T08:42:06;132.00;;;49.83;;
19101;SDS011;9683;49.028;12.064;2023-02-27T08:44:33;184.88;;;62.80;;
19101;SDS011;9683;49.028;12.064;2023-02-27T08:46:59;179.15;;;60.72;;
19101;SDS011;9683;49.028;12.064;2023-02-27T08:49:27;137.02;;;43.90;;
19101;SDS011;9683;49.028;12.064;2023-02-27T08:51:54;116.50;;;39.03;;
19101;SDS011;9683;49.028;12.064;2023-02-27T08:54:21;141.50;;;42.58;;
19101;SDS011;9683;49.028;12.064;2023-02-27T08:56:47;106.15;;;33.95;;
19101;SDS011;9683;49.028;12.064;2023-02-27T08:59:14;111.05;;;37.35;;
19101;SDS011;9683;49.028;12.064;2023-02-27T09:01:41;136.38;;;38.47;;
19101;SDS011;9683;49.028;12.064;2023-02-27T09:04:08;128.45;;;36.10;;
19101;SDS011;9683;49.028;12.064;2023-02-27T09:06:36;116.82;;;35.30;;
19101;SDS011;9683;49.028;12.064;2023-02-27T09:09:03;132.88;;;41.17;;
19101;SDS011;9683;49.028;12.064;2023-02-27T09:11:30;95.07;;;35.40;;
19101;SDS011;9683;49.028;12.064;2023-02-27T09:13:57;89.30;;;28.70;;
19101;SDS011;9683;49.028;12.064;2023-02-27T09:16:24;94.20;;;28.27;;
19101;SDS011;9683;49.028;12.064;2023-02-27T09:18:51;87.22;;;27.58;;
19101;SDS011;9683;49.028;12.064;2023-02-27T09:21:18;109.93;;;26.98;;
19101;SDS011;9683;49.028;12.064;2023-02-27T09:23:46;106.63;;;32.30;;
19101;SDS011;9683;49.028;12.064;2023-02-27T09:26:12;87.93;;;31.50;;
19101;SDS011;9683;49.028;12.064;2023-02-27T09:28:40;149.65;;;41.30;;
19101;SDS011;9683;49.028;12.064;2023-02-27T09:31:06;142.43;;;39.30;;
19101;SDS011;9683;49.028;12.064;2023-02-27T09:33:34;117.43;;;33.78;;
19101;SDS011;9683;49.028;12.064;2023-02-27T09:36:02;121.68;;;34.50;;
19101;SDS011;9683;49.028;12.064;2023-02-27T09:38:30;127.38;;;34.55;;
19101;SDS011;9683;49.028;12.064;2023-02-27T09:40:59;144.60;;;40.63;;
19101;SDS011;9683;49.028;12.064;2023-02-27T09:43:27;92.63;;;27.67;;
19101;SDS011;9683;49.028;12.064;2023-02-27T09:45:59;126.32;;;35.25;;
19101;SDS011;9683;49.028;12.064;2023-02-27T09:48:28;127.18;;;33.85;;
19101;SDS011;9683;49.028;12.064;2023-02-27T09:50:56;108.82;;;31.48;;
19101;SDS011;9683;49.028;12.064;2023-02-27T09:53:25;78.90;;;24.23;;
19101;SDS011;9683;49.028;12.064;2023-02-27T09:55:56;85.97;;;21.40;;
19101;SDS011;9683;49.028;12.064;2023-02-27T09:58:42;93.50;;;37.05;;
19101;SDS011;9683;49.028;12.064;2023-02-27T10:01:15;98.72;;;36.47;;
19101;SDS011;9683;49.028;12.064;2023-02-27T10:03:50;111.93;;;40.42;;
19101;SDS011;9683;49.028;12.064;2023-02-27T10:06:35;136.10;;;34.35;;
19101;SDS011;9683;49.028;12.064;2023-02-27T10:09:11;118.32;;;32.40;;
19101;SDS011;9683;49.028;12.064;2023-02-27T10:11:52;91.10;;;29.17;;
19101;SDS011;9683;49.028;12.064;2023-02-27T10:14:33;133.50;;;38.30;;
19101;SDS011;9683;49.028;12.064;2023-02-27T10:17:05;130.88;;;40.83;;
19101;SDS011;9683;49.028;12.064;2023-02-27T10:19:39;125.93;;;42.30;;
19101;SDS011;9683;49.028;12.064;2023-02-27T10:22:11;119.30;;;40.10;;
19101;SDS011;9683;49.028;12.064;2023-02-27T10:24:47;119.95;;;50.35;;
19101;SDS011;9683;49.028;12.064;2023-02-27T10:27:20;123.75;;;52.78;;
19101;SDS011;9683;49.028;12.064;2023-02-27T10:29:47;200.25;;;76.47;;
19101;SDS011;9683;49.028;12.064;2023-02-27T10:32:15;184.35;;;67.43;;
19101;SDS011;9683;49.028;12.064;2023-02-27T10:34:46;179.88;;;70.00;;
19101;SDS011;9683;49.028;12.064;2023-02-27T10:37:17;130.38;;;58.75;;
19101;SDS011;9683;49.028;12.064;2023-02-27T10:39:48;145.02;;;62.33;;
19101;SDS011;9683;49.028;12.064;2023-02-27T10:42:19;173.90;;;68.00;;
19101;SDS011;9683;49.028;12.064;2023-02-27T10:44:48;163.25;;;70.85;;
19101;SDS011;9683;49.028;12.064;2023-02-27T10:47:17;155.70;;;64.22;;
19101;SDS011;9683;49.028;12.064;2023-02-27T10:49:46;203.38;;;77.20;;
19101;SDS011;9683;49.028;12.064;2023-02-27T10:52:14;244.73;;;91.45;;
19101;SDS011;9683;49.028;12.064;2023-02-27T10:54:41;265.73;;;100.55;;
19101;SDS011;9683;49.028;12.064;2023-02-27T10:57:17;202.40;;;81.15;;
19101;SDS011;9683;49.028;12.064;2023-02-27T10:59:51;146.52;;;66.22;;
19101;SDS011;9683;49.028;12.064;2023-02-27T11:02:21;201.85;;;74.20;;
19101;SDS011;9683;49.028;12.064;2023-02-27T11:04:51;175.93;;;73.88;;
19101;SDS011;9683;49.028;12.064;2023-02-27T11:07:29;213.77;;;85.88;;
19101;SDS011;9683;49.028;12.064;2023-02-27T11:09:59;155.18;;;64.22;;
19101;SDS011;9683;49.028;12.064;2023-02-27T11:12:29;151.07;;;62.80;;
19101;SDS011;9683;49.028;12.064;2023-02-27T11:14:58;150.25;;;62.58;;
19101;SDS011;9683;49.028;12.064;2023-02-27T11:17:26;151.13;;;58.67;;
19101;SDS011;9683;49.028;12.064;2023-02-27T11:19:54;126.78;;;55.28;;
19101;SDS011;9683;49.028;12.064;2023-02-27T11:22:22;130.23;;;54.30;;
19101;SDS011;9683;49.028;12.064;2023-02-27T11:24:50;140.27;;;59.38;;
19101;SDS011;9683;49.028;12.064;2023-02-27T11:27:19;134.25;;;57.22;;
19101;SDS011;9683;49.028;12.064;2023-02-27T11:29:59;188.13;;;67.90;;
19101;SDS011;9683;49.028;12.064;2023-02-27T11:32:28;142.45;;;57.55;;
19101;SDS011;9683;49.028;12.064;2023-02-27T11:35:01;137.60;;;51.45;;
19101;SDS011;9683;49.028;12.064;2023-02-27T11:37:29;124.20;;;55.15;;
19101;SDS011;9683;49.028;12.064;2023-02-27T11:40:00;113.80;;;53.45;;
19101;SDS011;9683;49.028;12.064;2023-02-27T11:42:40;127.90;;;52.22;;
19101;SDS011;9683;49.028;12.064;2023-02-27T11:45:21;100.32;;;47.17;;
19101;SDS011;9683;49.028;12.064;2023-02-27T11:47:54;117.18;;;47.88;;
19101;SDS011;9683;49.028;12.064;2023-02-27T11:50:47;80.05;;;39.38;;
19101;SDS011;9683;49.028;12.064;2023-02-27T11:53:29;102.93;;;44.08;;
19101;SDS011;9683;49.028;12.064;2023-02-27T11:56:05;107.45;;;44.22;;
19101;SDS011;9683;49.028;12.064;2023-02-27T11:58:36;89.35;;;37.80;;
19101;SDS011;9683;49.028;12.064;2023-02-27T12:01:13;120.00;;;56.30;;
19101;SDS011;9683;49.028;12.064;2023-02-27T12:03:46;72.00;;;41.15;;
19101;SDS011;9683;49.028;12.064;2023-02-27T12:06:18;79.68;;;44.05;;
19101;SDS011;9683;49.028;12.064;2023-02-27T12:08:49;114.78;;;56.22;;
19101;SDS011;9683;49.028;12.064;2023-02-27T12:11:20;265.92;;;97.32;;
19101;SDS011;9683;49.028;12.064;2023-02-27T12:13:52;241.20;;;96.80;;
19101;SDS011;9683;49.028;12.064;2023-02-27T12:16:26;180.15;;;70.60;;
19101;SDS011;9683;49.028;12.064;2023-02-27T12:18:56;127.85;;;60.10;;
19101;SDS011;9683;49.028;12.064;2023-02-27T12:21:29;156.77;;;65.00;;
19101;SDS011;9683;49.028;12.064;2023-02-27T12:23:59;140.20;;;70.63;;
19101;SDS011;9683;49.028;12.064;2023-02-27T12:26:33;151.13;;;62.55;;
19101;SDS011;9683;49.028;12.064;2023-02-27T12:29:03;155.20;;;66.22;;
19101;SDS011;9683;49.028;12.064;2023-02-27T12:31:45;211.98;;;81.50;;
19101;SDS011;9683;49.028;12.064;2023-02-27T12:34:17;189.63;;;77.43;;
19101;SDS011;9683;49.028;12.064;2023-02-27T12:36:51;147.32;;;64.50;;
19101;SDS011;9683;49.028;12.064;2023-02-27T12:39:18;153.50;;;61.15;;
19101;SDS011;9683;49.028;12.064;2023-02-27T12:41:56;146.02;;;64.45;;
19101;SDS011;9683;49.028;12.064;2023-02-27T12:44:35;252.32;;;94.53;;
19101;SDS011;9683;49.028;12.064;2023-02-27T12:47:16;190.52;;;80.25;;
19101;SDS011;9683;49.028;12.064;2023-02-27T12:49:51;180.20;;;68.93;;
19101;SDS011;9683;49.028;12.064;2023-02-27T12:52:27;220.38;;;88.88;;
19101;SDS011;9683;49.028;12.064;2023-02-27T12:55:00;433.27;;;115.18;;
19101;SDS011;9683;49.028;12.064;2023-02-27T12:57:36;145.20;;;61.17;;
19101;SDS011;9683;49.028;12.064;2023-02-27T13:00:14;210.10;;;72.03;;
19101;SDS011;9683;49.028;12.064;2023-02-27T13:02:59;153.95;;;61.90;;
19101;SDS011;9683;49.028;12.064;2023-02-27T13:05:44;142.60;;;63.35;;
19101;SDS011;9683;49.028;12.064;2023-02-27T13:08:22;139.93;;;63.30;;
19101;SDS011;9683;49.028;12.064;2023-02-27T13:11:09;153.80;;;65.22;;
19101;SDS011;9683;49.028;12.064;2023-02-27T13:13:43;120.65;;;48.03;;
19101;SDS011;9683;49.028;12.064;2023-02-27T13:16:14;144.27;;;45.10;;
19101;SDS011;9683;49.028;12.064;2023-02-27T13:18:46;124.38;;;29.27;;
19101;SDS011;9683;49.028;12.064;2023-02-27T13:21:18;142.57;;;33.97;;
19101;SDS011;9683;49.028;12.064;2023-02-27T13:24:03;125.30;;;23.30;;
19101;SDS011;9683;49.028;12.064;2023-02-27T13:26:45;92.30;;;18.65;;
19101;SDS011;9683;49.028;12.064;2023-02-27T13:29:16;121.18;;;27.83;;
19101;SDS011;9683;49.028;12.064;2023-02-27T13:31:46;95.82;;;35.85;;
19101;SDS011;9683;49.028;12.064;2023-02-27T13:34:21;134.60;;;41.50;;
19101;SDS011;9683;49.028;12.064;2023-02-27T13:36:56;137.48;;;47.90;;
19101;SDS011;9683;49.028;12.064;2023-02-27T13:39:36;104.75;;;33.13;;
19101;SDS011;9683;49.028;12.064;2023-02-27T13:42:06;114.70;;;32.63;;
19101;SDS011;9683;49.028;12.064;2023-02-27T13:51:38;119.75;;;34.08;;
19101;SDS011;9683;49.028;12.064;2023-02-27T13:54:20;165.48;;;53.28;;
19101;SDS011;9683;49.028;12.064;2023-02-27T13:56:50;103.47;;;34.78;;
19101;SDS011;9683;49.028;12.064;2023-02-27T13:59:33;213.05;;;50.90;;
19101;SDS011;9683;49.028;12.064;2023-02-27T14:02:01;115.28;;;37.10;;
19101;SDS011;9683;49.028;12.064;2023-02-27T14:04:31;119.22;;;35.80;;
19101;SDS011;9683;49.028;12.064;2023-02-27T14:07:01;115.78;;;41.50;;
19101;SDS011;9683;49.028;12.064;2023-02-27T14:09:32;98.93;;;34.80;;
19101;SDS011;9683;49.028;12.064;2023-02-27T14:12:02;91.95;;;31.88;;
19101;SDS011;9683;49.028;12.064;2023-02-27T14:14:35;145.95;;;43.03;;
19101;SDS011;9683;49.028;12.064;2023-02-27T14:17:06;123.18;;;38.58;;
19101;SDS011;9683;49.028;12.064;2023-02-27T14:22:32;130.68;;;52.05;;
19101;SDS011;9683;49.028;12.064;2023-02-27T14:25:02;173.30;;;76.72;;
19101;SDS011;9683;49.028;12.064;2023-02-27T14:27:44;123.82;;;38.58;;
19101;SDS011;9683;49.028;12.064;2023-02-27T14:30:21;106.20;;;30.90;;
19101;SDS011;9683;49.028;12.064;2023-02-27T14:32:53;122.45;;;26.90;;
19101;SDS011;9683;49.028;12.064;2023-02-27T14:35:22;73.80;;;18.30;;
19101;SDS011;9683;49.028;12.064;2023-02-27T14:37:50;98.68;;;17.38;;
19101;SDS011;9683;49.028;12.064;2023-02-27T14:40:20;52.30;;;10.77;;
19101;SDS011;9683;49.028;12.064;2023-02-27T14:42:49;72.50;;;13.07;;
19101;SDS011;9683;49.028;12.064;2023-02-27T14:45:23;61.50;;;11.25;;
19101;SDS011;9683;49.028;12.064;2023-02-27T14:47:50;111.15;;;22.38;;
19101;SDS011;9683;49.028;12.064;2023-02-27T14:50:20;74.03;;;14.43;;
19101;SDS011;9683;49.028;12.064;2023-02-27T14:52:48;83.68;;;16.75;;
19101;SDS011;9683;49.028;12.064;2023-02-27T14:55:17;82.32;;;17.38;;
19101;SDS011;9683;49.028;12.064;2023-02-27T14:57:52;120.57;;;23.63;;
19101;SDS011;9683;49.028;12.064;2023-02-27T15:00:35;146.48;;;33.33;;
19101;SDS011;9683;49.028;12.064;2023-02-27T15:03:16;160.70;;;32.25;;
19101;SDS011;9683;49.028;12.064;2023-02-27T15:05:44;85.78;;;17.10;;